sensor_id;sensor_type;location;lat;lon;timestamp;temperature;humidity
5930;DHT22;2990;48.746;9.236;2022-11-12T00:02:17;5.60;99.90
5930;DHT22;2990;48.746;9.236;2022-11-12T00:04:42;5.60;99.90
5930;DHT22;2990;48.746;9.236;2022-11-12T00:07:08;5.50;99.90
5930;DHT22;2990;48.746;9.236;2022-11-12T00:09:34;5.50;99.90
5930;DHT22;2990;48.746;9.236;2022-11-12T00:11:59;5.50;99.90
5930;DHT22;2990;48.746;9.236;2022-11-12T00:14:25;5.50;99.90
5930;DHT22;2990;48.746;9.236;2022-11-12T00:16:51;5.60;99.90
5930;DHT22;2990;48.746;9.236;2022-11-12T00:19:16;5.70;99.90
5930;DHT22;2990;48.746;9.236;2022-11-12T00:21:42;5.70;99.90
5930;DHT22;2990;48.746;9.236;2022-11-12T00:24:07;5.70;99.90
5930;DHT22;2990;48.746;9.236;2022-11-12T00:26:33;5.70;99.90
5930;DHT22;2990;48.746;9.236;2022-11-12T00:28:58;5.70;99.90
5930;DHT22;2990;48.746;9.236;2022-11-12T00:31:24;5.70;99.90
5930;DHT22;2990;48.746;9.236;2022-11-12T00:33:50;5.80;99.90
5930;DHT22;2990;48.746;9.236;2022-11-12T00:36:16;5.80;99.90
5930;DHT22;2990;48.746;9.236;2022-11-12T00:38:41;5.70;99.90
5930;DHT22;2990;48.746;9.236;2022-11-12T00:41:07;5.80;99.90
5930;DHT22;2990;48.746;9.236;2022-11-12T00:43:32;5.70;99.90
5930;DHT22;2990;48.746;9.236;2022-11-12T00:45:58;5.70;99.90
5930;DHT22;2990;48.746;9.236;2022-11-12T00:48:24;5.70;99.90
5930;DHT22;2990;48.746;9.236;2022-11-12T00:50:49;5.60;99.90
5930;DHT22;2990;48.746;9.236;2022-11-12T00:53:15;5.70;99.90
5930;DHT22;2990;48.746;9.236;2022-11-12T00:55:41;5.60;99.90
5930;DHT22;2990;48.746;9.236;2022-11-12T00:58:06;5.60;99.90
5930;DHT22;2990;48.746;9.236;2022-11-12T01:00:32;5.60;99.90
5930;DHT22;2990;48.746;9.236;2022-11-12T01:02:57;5.60;99.90
5930;DHT22;2990;48.746;9.236;2022-11-12T01:05:23;5.50;99.90
5930;DHT22;2990;48.746;9.236;2022-11-12T01:07:49;5.50;99.90
5930;DHT22;2990;48.746;9.236;2022-11-12T01:10:14;5.50;99.90
5930;DHT22;2990;48.746;9.236;2022-11-12T01:12:40;5.40;99.90
5930;DHT22;2990;48.746;9.236;2022-11-12T01:15:06;5.40;99.90
5930;DHT22;2990;48.746;9.236;2022-11-12T01:17:32;5.30;99.90
5930;DHT22;2990;48.746;9.236;2022-11-12T01:19:58;5.20;99.90
5930;DHT22;2990;48.746;9.236;2022-11-12T01:22:23;5.10;99.90
5930;DHT22;2990;48.746;9.236;2022-11-12T01:24:49;5.10;99.90
5930;DHT22;2990;48.746;9.236;2022-11-12T01:27:15;4.90;99.90
5930;DHT22;2990;48.746;9.236;2022-11-12T01:29:40;4.90;99.90
5930;DHT22;2990;48.746;9.236;2022-11-12T01:32:06;4.80;99.90
5930;DHT22;2990;48.746;9.236;2022-11-12T01:34:32;4.80;99.90
5930;DHT22;2990;48.746;9.236;2022-11-12T01:36:58;4.80;99.90
5930;DHT22;2990;48.746;9.236;2022-11-12T01:39:24;4.90;99.90
5930;DHT22;2990;48.746;9.236;2022-11-12T01:41:49;4.90;99.90
5930;DHT22;2990;48.746;9.236;2022-11-12T01:44:23;4.90;99.90
5930;DHT22;2990;48.746;9.236;2022-11-12T01:47:13;4.90;99.90
5930;DHT22;2990;48.746;9.236;2022-11-12T01:52:22;5.00;99.90
5930;DHT22;2990;48.746;9.236;2022-11-12T01:54:51;5.00;99.90
5930;DHT22;2990;48.746;9.236;2022-11-12T01:57:22;5.00;99.90
5930;DHT22;2990;48.746;9.236;2022-11-12T01:59:49;5.00;99.90
5930;DHT22;2990;48.746;9.236;2022-11-12T02:02:17;4.90;99.90
5930;DHT22;2990;48.746;9.236;2022-11-12T02:04:43;4.90;99.90
5930;DHT22;2990;48.746;9.236;2022-11-12T02:07:10;4.90;99.90
5930;DHT22;2990;48.746;9.236;2022-11-12T02:09:36;4.90;99.90
5930;DHT22;2990;48.746;9.236;2022-11-12T02:12:02;4.90;99.90
5930;DHT22;2990;48.746;9.236;2022-11-12T02:14:29;4.90;99.90
5930;DHT22;2990;48.746;9.236;2022-11-12T02:16:55;4.80;99.90
5930;DHT22;2990;48.746;9.236;2022-11-12T02:19:20;4.90;99.90
5930;DHT22;2990;48.746;9.236;2022-11-12T02:21:46;4.70;99.90
5930;DHT22;2990;48.746;9.236;2022-11-12T02:26:40;4.80;99.90
5930;DHT22;2990;48.746;9.236;2022-11-12T02:29:07;4.70;99.90
5930;DHT22;2990;48.746;9.236;2022-11-12T02:31:33;4.70;99.90
5930;DHT22;2990;48.746;9.236;2022-11-12T02:33:59;4.70;99.90
5930;DHT22;2990;48.746;9.236;2022-11-12T02:36:25;4.70;99.90
5930;DHT22;2990;48.746;9.236;2022-11-12T02:38:51;4.70;99.90
5930;DHT22;2990;48.746;9.236;2022-11-12T02:41:16;4.60;99.90
5930;DHT22;2990;48.746;9.236;2022-11-12T02:43:42;4.70;99.90
5930;DHT22;2990;48.746;9.236;2022-11-12T02:46:08;4.60;99.90
5930;DHT22;2990;48.746;9.236;2022-11-12T02:48:34;4.60;99.90
5930;DHT22;2990;48.746;9.236;2022-11-12T02:50:59;4.50;99.90
5930;DHT22;2990;48.746;9.236;2022-11-12T02:53:25;4.50;99.90
5930;DHT22;2990;48.746;9.236;2022-11-12T02:55:51;4.50;99.90
5930;DHT22;2990;48.746;9.236;2022-11-12T02:58:17;4.40;99.90
5930;DHT22;2990;48.746;9.236;2022-11-12T03:00:42;4.40;99.90
5930;DHT22;2990;48.746;9.236;2022-11-12T03:03:08;4.40;99.90
5930;DHT22;2990;48.746;9.236;2022-11-12T03:05:34;4.30;99.90
5930;DHT22;2990;48.746;9.236;2022-11-12T03:08:05;4.20;99.90
5930;DHT22;2990;48.746;9.236;2022-11-12T03:10:31;4.00;99.90
5930;DHT22;2990;48.746;9.236;2022-11-12T03:12:59;3.90;99.90
5930;DHT22;2990;48.746;9.236;2022-11-12T03:15:25;3.70;99.90
5930;DHT22;2990;48.746;9.236;2022-11-12T03:17:51;3.70;99.90
5930;DHT22;2990;48.746;9.236;2022-11-12T03:20:17;3.70;99.90
5930;DHT22;2990;48.746;9.236;2022-11-12T03:22:42;3.60;99.90
5930;DHT22;2990;48.746;9.236;2022-11-12T03:25:21;3.60;99.90
5930;DHT22;2990;48.746;9.236;2022-11-12T03:27:47;3.60;99.90
5930;DHT22;2990;48.746;9.236;2022-11-12T03:30:12;3.60;99.90
5930;DHT22;2990;48.746;9.236;2022-11-12T03:32:38;3.70;99.90
5930;DHT22;2990;48.746;9.236;2022-11-12T03:35:04;3.60;99.90
5930;DHT22;2990;48.746;9.236;2022-11-12T03:37:29;3.60;99.90
5930;DHT22;2990;48.746;9.236;2022-11-12T03:39:55;3.60;99.90
5930;DHT22;2990;48.746;9.236;2022-11-12T03:42:20;3.50;99.90
5930;DHT22;2990;48.746;9.236;2022-11-12T03:44:46;3.50;99.90
5930;DHT22;2990;48.746;9.236;2022-11-12T03:47:12;3.40;99.90
5930;DHT22;2990;48.746;9.236;2022-11-12T03:49:40;3.40;99.90
5930;DHT22;2990;48.746;9.236;2022-11-12T03:52:08;3.30;99.90
5930;DHT22;2990;48.746;9.236;2022-11-12T03:54:34;3.20;99.90
5930;DHT22;2990;48.746;9.236;2022-11-12T03:56:59;3.20;99.90
5930;DHT22;2990;48.746;9.236;2022-11-12T03:59:25;3.20;99.90
5930;DHT22;2990;48.746;9.236;2022-11-12T04:01:51;3.10;99.90
5930;DHT22;2990;48.746;9.236;2022-11-12T04:04:16;3.20;99.90
5930;DHT22;2990;48.746;9.236;2022-11-12T04:06:42;3.00;99.90
5930;DHT22;2990;48.746;9.236;2022-11-12T04:09:26;2.90;99.90
5930;DHT22;2990;48.746;9.236;2022-11-12T04:11:51;3.00;99.90
5930;DHT22;2990;48.746;9.236;2022-11-12T04:14:17;3.00;99.90
5930;DHT22;2990;48.746;9.236;2022-11-12T04:16:43;3.00;99.90
5930;DHT22;2990;48.746;9.236;2022-11-12T04:19:27;3.00;99.90
5930;DHT22;2990;48.746;9.236;2022-11-12T04:22:10;3.00;99.90
5930;DHT22;2990;48.746;9.236;2022-11-12T04:24:38;3.00;99.90
5930;DHT22;2990;48.746;9.236;2022-11-12T04:27:25;3.00;99.90
5930;DHT22;2990;48.746;9.236;2022-11-12T04:29:51;3.10;99.90
5930;DHT22;2990;48.746;9.236;2022-11-12T04:32:44;3.10;99.90
5930;DHT22;2990;48.746;9.236;2022-11-12T04:35:10;3.10;99.90
5930;DHT22;2990;48.746;9.236;2022-11-12T04:37:36;3.10;99.90
5930;DHT22;2990;48.746;9.236;2022-11-12T04:40:16;3.10;99.90
5930;DHT22;2990;48.746;9.236;2022-11-12T04:43:01;3.20;99.90
5930;DHT22;2990;48.746;9.236;2022-11-12T04:45:48;3.10;99.90
5930;DHT22;2990;48.746;9.236;2022-11-12T04:48:14;3.30;99.90
5930;DHT22;2990;48.746;9.236;2022-11-12T04:50:41;3.20;99.90
5930;DHT22;2990;48.746;9.236;2022-11-12T04:53:08;3.20;99.90
5930;DHT22;2990;48.746;9.236;2022-11-12T04:55:33;3.20;99.90
5930;DHT22;2990;48.746;9.236;2022-11-12T04:57:59;3.30;99.90
5930;DHT22;2990;48.746;9.236;2022-11-12T05:00:25;3.30;99.90
5930;DHT22;2990;48.746;9.236;2022-11-12T05:02:50;3.30;99.90
5930;DHT22;2990;48.746;9.236;2022-11-12T05:05:16;3.30;99.90
5930;DHT22;2990;48.746;9.236;2022-11-12T05:07:41;3.30;99.90
5930;DHT22;2990;48.746;9.236;2022-11-12T05:10:08;3.30;99.90
5930;DHT22;2990;48.746;9.236;2022-11-12T05:12:34;3.30;99.90
5930;DHT22;2990;48.746;9.236;2022-11-12T05:15:00;3.30;99.90
5930;DHT22;2990;48.746;9.236;2022-11-12T05:17:26;3.30;99.90
5930;DHT22;2990;48.746;9.236;2022-11-12T05:19:51;3.30;99.90
5930;DHT22;2990;48.746;9.236;2022-11-12T05:22:17;3.30;99.90
5930;DHT22;2990;48.746;9.236;2022-11-12T05:24:43;3.30;99.90
5930;DHT22;2990;48.746;9.236;2022-11-12T05:27:14;3.30;99.90
5930;DHT22;2990;48.746;9.236;2022-11-12T05:29:43;3.30;99.90
5930;DHT22;2990;48.746;9.236;2022-11-12T05:32:28;3.30;99.90
5930;DHT22;2990;48.746;9.236;2022-11-12T05:34:54;3.30;99.90
5930;DHT22;2990;48.746;9.236;2022-11-12T05:37:20;3.30;99.90
5930;DHT22;2990;48.746;9.236;2022-11-12T05:39:45;3.30;99.90
5930;DHT22;2990;48.746;9.236;2022-11-12T05:42:11;3.30;99.90
5930;DHT22;2990;48.746;9.236;2022-11-12T05:44:37;3.30;99.90
5930;DHT22;2990;48.746;9.236;2022-11-12T05:47:02;3.30;99.90
5930;DHT22;2990;48.746;9.236;2022-11-12T05:49:28;3.30;99.90
5930;DHT22;2990;48.746;9.236;2022-11-12T05:51:54;3.30;99.90
5930;DHT22;2990;48.746;9.236;2022-11-12T05:54:20;3.20;99.90
5930;DHT22;2990;48.746;9.236;2022-11-12T05:56:46;3.20;99.90
5930;DHT22;2990;48.746;9.236;2022-11-12T05:59:12;3.10;99.90
5930;DHT22;2990;48.746;9.236;2022-11-12T06:01:39;3.10;99.90
5930;DHT22;2990;48.746;9.236;2022-11-12T06:04:12;3.10;99.90
5930;DHT22;2990;48.746;9.236;2022-11-12T06:06:38;3.10;99.90
5930;DHT22;2990;48.746;9.236;2022-11-12T06:09:04;3.10;99.90
5930;DHT22;2990;48.746;9.236;2022-11-12T06:11:30;3.00;99.90
5930;DHT22;2990;48.746;9.236;2022-11-12T06:13:56;3.10;99.90
5930;DHT22;2990;48.746;9.236;2022-11-12T06:16:22;3.00;99.90
5930;DHT22;2990;48.746;9.236;2022-11-12T06:18:47;2.90;99.90
5930;DHT22;2990;48.746;9.236;2022-11-12T06:21:13;2.90;99.90
5930;DHT22;2990;48.746;9.236;2022-11-12T06:23:47;3.00;99.90
5930;DHT22;2990;48.746;9.236;2022-11-12T06:26:13;2.90;99.90
5930;DHT22;2990;48.746;9.236;2022-11-12T06:28:38;3.00;99.90
5930;DHT22;2990;48.746;9.236;2022-11-12T06:31:04;2.90;99.90
5930;DHT22;2990;48.746;9.236;2022-11-12T06:33:30;2.90;99.90
5930;DHT22;2990;48.746;9.236;2022-11-12T06:36:00;3.00;99.90
5930;DHT22;2990;48.746;9.236;2022-11-12T06:38:33;3.00;99.90
5930;DHT22;2990;48.746;9.236;2022-11-12T06:41:00;3.00;99.90
5930;DHT22;2990;48.746;9.236;2022-11-12T06:43:27;3.00;99.90
5930;DHT22;2990;48.746;9.236;2022-11-12T06:45:53;3.00;99.90
5930;DHT22;2990;48.746;9.236;2022-11-12T06:48:19;3.10;99.90
5930;DHT22;2990;48.746;9.236;2022-11-12T06:50:44;3.10;99.90
5930;DHT22;2990;48.746;9.236;2022-11-12T06:53:10;3.10;99.90
5930;DHT22;2990;48.746;9.236;2022-11-12T06:55:36;3.10;99.90
5930;DHT22;2990;48.746;9.236;2022-11-12T06:58:01;3.20;99.90
5930;DHT22;2990;48.746;9.236;2022-11-12T07:00:27;3.20;99.90
5930;DHT22;2990;48.746;9.236;2022-11-12T07:02:52;3.20;99.90
5930;DHT22;2990;48.746;9.236;2022-11-12T07:05:18;3.30;99.90
5930;DHT22;2990;48.746;9.236;2022-11-12T07:07:43;3.30;99.90
5930;DHT22;2990;48.746;9.236;2022-11-12T07:10:09;3.30;99.90
5930;DHT22;2990;48.746;9.236;2022-11-12T07:12:34;3.30;99.90
5930;DHT22;2990;48.746;9.236;2022-11-12T07:15:00;3.40;99.90
5930;DHT22;2990;48.746;9.236;2022-11-12T07:17:26;3.40;99.90
5930;DHT22;2990;48.746;9.236;2022-11-12T07:19:51;3.50;99.90
5930;DHT22;2990;48.746;9.236;2022-11-12T07:22:17;3.50;99.90
5930;DHT22;2990;48.746;9.236;2022-11-12T07:24:42;3.60;99.90
5930;DHT22;2990;48.746;9.236;2022-11-12T07:27:08;3.60;99.90
5930;DHT22;2990;48.746;9.236;2022-11-12T07:29:34;3.60;99.90
5930;DHT22;2990;48.746;9.236;2022-11-12T07:31:59;3.70;99.90
5930;DHT22;2990;48.746;9.236;2022-11-12T07:34:25;3.80;99.90
5930;DHT22;2990;48.746;9.236;2022-11-12T07:36:51;3.80;99.90
5930;DHT22;2990;48.746;9.236;2022-11-12T07:39:19;3.80;99.90
5930;DHT22;2990;48.746;9.236;2022-11-12T07:41:45;3.80;99.90
5930;DHT22;2990;48.746;9.236;2022-11-12T07:44:10;3.80;99.90
5930;DHT22;2990;48.746;9.236;2022-11-12T07:46:36;3.80;99.90
5930;DHT22;2990;48.746;9.236;2022-11-12T07:49:01;3.80;99.90
5930;DHT22;2990;48.746;9.236;2022-11-12T07:51:28;3.80;99.90
5930;DHT22;2990;48.746;9.236;2022-11-12T07:53:56;3.80;99.90
5930;DHT22;2990;48.746;9.236;2022-11-12T07:56:23;3.80;99.90
5930;DHT22;2990;48.746;9.236;2022-11-12T07:58:49;3.80;99.90
5930;DHT22;2990;48.746;9.236;2022-11-12T08:01:31;3.70;99.90
5930;DHT22;2990;48.746;9.236;2022-11-12T08:04:02;3.70;99.90
5930;DHT22;2990;48.746;9.236;2022-11-12T08:06:28;3.70;99.90
5930;DHT22;2990;48.746;9.236;2022-11-12T08:08:56;3.80;99.90
5930;DHT22;2990;48.746;9.236;2022-11-12T08:11:22;3.80;99.90
5930;DHT22;2990;48.746;9.236;2022-11-12T08:13:49;3.80;99.90
5930;DHT22;2990;48.746;9.236;2022-11-12T08:16:15;3.80;99.90
5930;DHT22;2990;48.746;9.236;2022-11-12T08:18:42;3.90;99.90
5930;DHT22;2990;48.746;9.236;2022-11-12T08:21:10;4.00;99.90
5930;DHT22;2990;48.746;9.236;2022-11-12T08:23:36;4.00;99.90
5930;DHT22;2990;48.746;9.236;2022-11-12T08:26:04;4.20;99.90
5930;DHT22;2990;48.746;9.236;2022-11-12T08:28:31;4.20;99.90
5930;DHT22;2990;48.746;9.236;2022-11-12T08:31:01;4.30;99.90
5930;DHT22;2990;48.746;9.236;2022-11-12T08:33:27;4.40;99.90
5930;DHT22;2990;48.746;9.236;2022-11-12T08:35:53;4.50;99.90
5930;DHT22;2990;48.746;9.236;2022-11-12T08:38:18;4.60;99.90
5930;DHT22;2990;48.746;9.236;2022-11-12T08:40:44;4.70;99.90
5930;DHT22;2990;48.746;9.236;2022-11-12T08:43:10;4.80;99.90
5930;DHT22;2990;48.746;9.236;2022-11-12T08:45:37;4.90;99.90
5930;DHT22;2990;48.746;9.236;2022-11-12T08:48:06;5.10;99.90
5930;DHT22;2990;48.746;9.236;2022-11-12T08:50:36;5.00;99.90
5930;DHT22;2990;48.746;9.236;2022-11-12T08:53:07;5.30;99.90
5930;DHT22;2990;48.746;9.236;2022-11-12T08:55:34;5.30;99.90
5930;DHT22;2990;48.746;9.236;2022-11-12T08:58:00;5.40;99.90
5930;DHT22;2990;48.746;9.236;2022-11-12T09:00:30;5.60;99.90
5930;DHT22;2990;48.746;9.236;2022-11-12T09:02:59;5.70;99.90
5930;DHT22;2990;48.746;9.236;2022-11-12T09:05:25;5.80;99.90
5930;DHT22;2990;48.746;9.236;2022-11-12T09:07:59;5.80;99.90
5930;DHT22;2990;48.746;9.236;2022-11-12T09:10:25;5.90;99.90
5930;DHT22;2990;48.746;9.236;2022-11-12T09:12:52;6.10;99.90
5930;DHT22;2990;48.746;9.236;2022-11-12T09:15:19;6.10;99.90
5930;DHT22;2990;48.746;9.236;2022-11-12T09:17:44;6.20;99.90
5930;DHT22;2990;48.746;9.236;2022-11-12T09:20:10;6.30;99.90
5930;DHT22;2990;48.746;9.236;2022-11-12T09:22:35;6.40;99.90
5930;DHT22;2990;48.746;9.236;2022-11-12T09:25:01;6.40;99.90
5930;DHT22;2990;48.746;9.236;2022-11-12T09:27:27;6.50;99.90
5930;DHT22;2990;48.746;9.236;2022-11-12T09:29:52;6.70;99.90
5930;DHT22;2990;48.746;9.236;2022-11-12T09:32:18;6.80;57.30
5930;DHT22;2990;48.746;9.236;2022-11-12T09:34:43;6.90;6.60
5930;DHT22;2990;48.746;9.236;2022-11-12T09:37:09;7.10;1.00
5930;DHT22;2990;48.746;9.236;2022-11-12T09:39:35;7.30;1.00
5930;DHT22;2990;48.746;9.236;2022-11-12T09:42:06;7.40;1.00
5930;DHT22;2990;48.746;9.236;2022-11-12T09:44:34;7.50;1.00
5930;DHT22;2990;48.746;9.236;2022-11-12T09:47:08;7.50;1.00
5930;DHT22;2990;48.746;9.236;2022-11-12T09:49:44;7.50;1.00
5930;DHT22;2990;48.746;9.236;2022-11-12T09:52:33;7.50;1.00
5930;DHT22;2990;48.746;9.236;2022-11-12T09:55:29;7.50;1.00
5930;DHT22;2990;48.746;9.236;2022-11-12T09:57:55;7.40;1.00
5930;DHT22;2990;48.746;9.236;2022-11-12T10:00:21;7.50;1.00
5930;DHT22;2990;48.746;9.236;2022-11-12T10:03:04;7.40;1.00
5930;DHT22;2990;48.746;9.236;2022-11-12T10:05:41;7.50;1.00
5930;DHT22;2990;48.746;9.236;2022-11-12T10:08:34;7.60;1.00
5930;DHT22;2990;48.746;9.236;2022-11-12T10:11:41;7.70;1.00
5930;DHT22;2990;48.746;9.236;2022-11-12T10:17:30;7.80;1.00
5930;DHT22;2990;48.746;9.236;2022-11-12T10:25:16;8.10;99.90
5930;DHT22;2990;48.746;9.236;2022-11-12T10:27:42;8.30;1.00
5930;DHT22;2990;48.746;9.236;2022-11-12T10:30:17;8.50;1.00
5930;DHT22;2990;48.746;9.236;2022-11-12T10:32:51;8.70;99.90
5930;DHT22;2990;48.746;9.236;2022-11-12T10:35:22;8.90;99.90
5930;DHT22;2990;48.746;9.236;2022-11-12T10:38:13;9.10;99.90
5930;DHT22;2990;48.746;9.236;2022-11-12T10:40:41;9.20;1.00
5930;DHT22;2990;48.746;9.236;2022-11-12T10:45:45;9.20;1.00
5930;DHT22;2990;48.746;9.236;2022-11-12T10:48:24;9.30;1.00
5930;DHT22;2990;48.746;9.236;2022-11-12T10:50:53;9.30;1.00
5930;DHT22;2990;48.746;9.236;2022-11-12T10:53:34;9.40;99.90
5930;DHT22;2990;48.746;9.236;2022-11-12T10:56:05;9.40;1.00
5930;DHT22;2990;48.746;9.236;2022-11-12T10:58:49;9.50;99.90
5930;DHT22;2990;48.746;9.236;2022-11-12T11:01:31;9.60;1.00
5930;DHT22;2990;48.746;9.236;2022-11-12T11:03:58;9.80;99.90
5930;DHT22;2990;48.746;9.236;2022-11-12T11:06:25;10.10;99.90
5930;DHT22;2990;48.746;9.236;2022-11-12T11:08:52;10.10;99.90
5930;DHT22;2990;48.746;9.236;2022-11-12T11:11:24;10.20;1.00
5930;DHT22;2990;48.746;9.236;2022-11-12T11:13:55;10.30;1.00
5930;DHT22;2990;48.746;9.236;2022-11-12T11:16:28;10.30;1.00
5930;DHT22;2990;48.746;9.236;2022-11-12T11:18:59;10.30;1.00
5930;DHT22;2990;48.746;9.236;2022-11-12T11:30:08;10.60;1.00
5930;DHT22;2990;48.746;9.236;2022-11-12T11:32:53;10.60;1.00
5930;DHT22;2990;48.746;9.236;2022-11-12T11:47:11;11.10;99.90
5930;DHT22;2990;48.746;9.236;2022-11-12T11:49:58;11.10;1.00
5930;DHT22;2990;48.746;9.236;2022-11-12T11:52:51;11.10;99.90
5930;DHT22;2990;48.746;9.236;2022-11-12T11:55:43;11.10;99.90
5930;DHT22;2990;48.746;9.236;2022-11-12T12:01:32;11.20;99.90
5930;DHT22;2990;48.746;9.236;2022-11-12T12:13:35;11.30;99.90
5930;DHT22;2990;48.746;9.236;2022-11-12T12:21:20;11.60;99.90
5930;DHT22;2990;48.746;9.236;2022-11-12T12:26:40;11.70;99.90
5930;DHT22;2990;48.746;9.236;2022-11-12T12:29:23;11.80;8.80
5930;DHT22;2990;48.746;9.236;2022-11-12T12:32:04;11.90;1.00
5930;DHT22;2990;48.746;9.236;2022-11-12T12:34:35;11.90;1.00
5930;DHT22;2990;48.746;9.236;2022-11-12T12:37:16;11.70;1.00
5930;DHT22;2990;48.746;9.236;2022-11-12T12:45:45;11.70;1.00
5930;DHT22;2990;48.746;9.236;2022-11-12T12:48:14;11.60;1.00
5930;DHT22;2990;48.746;9.236;2022-11-12T12:50:42;11.50;1.00
5930;DHT22;2990;48.746;9.236;2022-11-12T12:58:17;11.60;99.90
5930;DHT22;2990;48.746;9.236;2022-11-12T13:04:03;11.50;1.00
5930;DHT22;2990;48.746;9.236;2022-11-12T13:06:33;11.40;12.60
5930;DHT22;2990;48.746;9.236;2022-11-12T13:19:36;11.70;1.00
5930;DHT22;2990;48.746;9.236;2022-11-12T13:43:40;11.50;99.90
5930;DHT22;2990;48.746;9.236;2022-11-12T13:48:39;11.50;99.90
5930;DHT22;2990;48.746;9.236;2022-11-12T13:51:18;11.40;1.00
5930;DHT22;2990;48.746;9.236;2022-11-12T13:53:47;11.40;1.00
5930;DHT22;2990;48.746;9.236;2022-11-12T13:56:33;11.30;1.00
5930;DHT22;2990;48.746;9.236;2022-11-12T13:59:13;11.20;1.00
5930;DHT22;2990;48.746;9.236;2022-11-12T14:01:39;11.20;1.00
5930;DHT22;2990;48.746;9.236;2022-11-12T14:04:06;11.10;99.90
5930;DHT22;2990;48.746;9.236;2022-11-12T14:06:37;11.10;99.90
5930;DHT22;2990;48.746;9.236;2022-11-12T14:09:25;11.20;99.90
5930;DHT22;2990;48.746;9.236;2022-11-12T14:20:28;11.00;71.90
5930;DHT22;2990;48.746;9.236;2022-11-12T14:23:03;11.00;99.90
5930;DHT22;2990;48.746;9.236;2022-11-12T14:25:33;11.00;99.90
5930;DHT22;2990;48.746;9.236;2022-11-12T14:27:59;10.90;1.00
5930;DHT22;2990;48.746;9.236;2022-11-12T14:30:28;11.00;1.00
5930;DHT22;2990;48.746;9.236;2022-11-12T14:33:08;10.90;99.90
5930;DHT22;2990;48.746;9.236;2022-11-12T14:35:36;10.80;1.00
5930;DHT22;2990;48.746;9.236;2022-11-12T14:38:08;10.80;1.00
5930;DHT22;2990;48.746;9.236;2022-11-12T14:40:37;10.80;99.90
5930;DHT22;2990;48.746;9.236;2022-11-12T14:45:49;10.70;1.00
5930;DHT22;2990;48.746;9.236;2022-11-12T14:48:16;10.60;1.00
5930;DHT22;2990;48.746;9.236;2022-11-12T14:50:44;10.60;1.00
5930;DHT22;2990;48.746;9.236;2022-11-12T14:53:14;10.50;1.00
5930;DHT22;2990;48.746;9.236;2022-11-12T14:55:47;10.50;1.00
5930;DHT22;2990;48.746;9.236;2022-11-12T14:58:15;10.40;1.00
5930;DHT22;2990;48.746;9.236;2022-11-12T15:00:50;10.40;1.00
5930;DHT22;2990;48.746;9.236;2022-11-12T15:03:31;10.30;1.00
5930;DHT22;2990;48.746;9.236;2022-11-12T15:06:06;10.30;1.00
5930;DHT22;2990;48.746;9.236;2022-11-12T15:08:36;10.20;1.00
5930;DHT22;2990;48.746;9.236;2022-11-12T15:13:43;10.10;22.20
5930;DHT22;2990;48.746;9.236;2022-11-12T15:16:15;10.10;1.00
5930;DHT22;2990;48.746;9.236;2022-11-12T15:18:41;10.10;99.90
5930;DHT22;2990;48.746;9.236;2022-11-12T15:23:44;10.00;99.90
5930;DHT22;2990;48.746;9.236;2022-11-12T15:26:35;9.90;1.00
5930;DHT22;2990;48.746;9.236;2022-11-12T15:34:42;9.70;99.90
5930;DHT22;2990;48.746;9.236;2022-11-12T15:39:53;9.60;1.00
5930;DHT22;2990;48.746;9.236;2022-11-12T15:50:34;9.50;99.90
5930;DHT22;2990;48.746;9.236;2022-11-12T15:53:27;9.40;99.90
5930;DHT22;2990;48.746;9.236;2022-11-12T15:55:57;9.30;1.00
5930;DHT22;2990;48.746;9.236;2022-11-12T15:58:36;9.30;1.00
5930;DHT22;2990;48.746;9.236;2022-11-12T16:01:02;9.20;99.90
5930;DHT22;2990;48.746;9.236;2022-11-12T16:03:55;9.20;1.00
5930;DHT22;2990;48.746;9.236;2022-11-12T16:06:24;9.10;1.00
5930;DHT22;2990;48.746;9.236;2022-11-12T16:08:58;9.10;1.00
5930;DHT22;2990;48.746;9.236;2022-11-12T16:11:27;9.10;1.00
5930;DHT22;2990;48.746;9.236;2022-11-12T16:14:09;9.00;1.00
5930;DHT22;2990;48.746;9.236;2022-11-12T16:16:35;9.00;98.30
5930;DHT22;2990;48.746;9.236;2022-11-12T16:19:02;8.90;99.90
5930;DHT22;2990;48.746;9.236;2022-11-12T16:21:27;8.90;99.90
5930;DHT22;2990;48.746;9.236;2022-11-12T16:23:53;8.80;99.90
5930;DHT22;2990;48.746;9.236;2022-11-12T16:26:23;8.80;99.90
5930;DHT22;2990;48.746;9.236;2022-11-12T16:28:50;8.80;1.00
5930;DHT22;2990;48.746;9.236;2022-11-12T16:31:25;8.70;1.00
5930;DHT22;2990;48.746;9.236;2022-11-12T16:33:54;8.70;1.00
5930;DHT22;2990;48.746;9.236;2022-11-12T16:36:25;8.70;1.00
5930;DHT22;2990;48.746;9.236;2022-11-12T16:38:51;8.70;1.00
5930;DHT22;2990;48.746;9.236;2022-11-12T16:41:16;8.70;1.00
5930;DHT22;2990;48.746;9.236;2022-11-12T16:43:42;8.60;1.00
5930;DHT22;2990;48.746;9.236;2022-11-12T16:46:14;8.60;1.00
5930;DHT22;2990;48.746;9.236;2022-11-12T16:48:42;8.40;1.00
5930;DHT22;2990;48.746;9.236;2022-11-12T16:51:16;8.40;1.00
5930;DHT22;2990;48.746;9.236;2022-11-12T16:53:42;8.40;1.00
5930;DHT22;2990;48.746;9.236;2022-11-12T16:56:21;8.30;1.00
5930;DHT22;2990;48.746;9.236;2022-11-12T16:58:48;8.50;1.00
5930;DHT22;2990;48.746;9.236;2022-11-12T17:01:22;8.30;1.00
5930;DHT22;2990;48.746;9.236;2022-11-12T17:03:49;8.30;1.00
5930;DHT22;2990;48.746;9.236;2022-11-12T17:06:14;8.20;1.00
5930;DHT22;2990;48.746;9.236;2022-11-12T17:08:40;8.20;1.00
5930;DHT22;2990;48.746;9.236;2022-11-12T17:11:07;8.20;1.00
5930;DHT22;2990;48.746;9.236;2022-11-12T17:13:37;8.20;1.00
5930;DHT22;2990;48.746;9.236;2022-11-12T17:16:06;8.10;1.00
5930;DHT22;2990;48.746;9.236;2022-11-12T17:18:33;8.10;1.00
5930;DHT22;2990;48.746;9.236;2022-11-12T17:21:13;8.10;1.00
5930;DHT22;2990;48.746;9.236;2022-11-12T17:23:39;8.10;1.00
5930;DHT22;2990;48.746;9.236;2022-11-12T17:26:06;8.00;1.00
5930;DHT22;2990;48.746;9.236;2022-11-12T17:28:32;8.00;1.00
5930;DHT22;2990;48.746;9.236;2022-11-12T17:31:13;8.00;1.00
5930;DHT22;2990;48.746;9.236;2022-11-12T17:33:44;7.80;1.00
5930;DHT22;2990;48.746;9.236;2022-11-12T17:36:11;7.80;1.00
5930;DHT22;2990;48.746;9.236;2022-11-12T17:38:38;7.70;1.00
5930;DHT22;2990;48.746;9.236;2022-11-12T17:41:04;7.70;1.00
5930;DHT22;2990;48.746;9.236;2022-11-12T17:43:30;7.60;1.00
5930;DHT22;2990;48.746;9.236;2022-11-12T17:45:56;7.60;1.00
5930;DHT22;2990;48.746;9.236;2022-11-12T17:48:22;7.60;1.00
5930;DHT22;2990;48.746;9.236;2022-11-12T17:50:50;7.60;1.00
5930;DHT22;2990;48.746;9.236;2022-11-12T17:53:16;7.60;1.00
5930;DHT22;2990;48.746;9.236;2022-11-12T17:55:41;7.60;13.80
5930;DHT22;2990;48.746;9.236;2022-11-12T17:58:07;7.50;27.10
5930;DHT22;2990;48.746;9.236;2022-11-12T18:00:35;7.50;41.00
5930;DHT22;2990;48.746;9.236;2022-11-12T18:03:01;7.50;49.00
5930;DHT22;2990;48.746;9.236;2022-11-12T18:05:26;7.40;58.10
5930;DHT22;2990;48.746;9.236;2022-11-12T18:07:52;7.40;75.90
5930;DHT22;2990;48.746;9.236;2022-11-12T18:10:18;7.40;95.20
5930;DHT22;2990;48.746;9.236;2022-11-12T18:12:44;7.30;99.90
5930;DHT22;2990;48.746;9.236;2022-11-12T18:15:12;7.30;99.90
5930;DHT22;2990;48.746;9.236;2022-11-12T18:17:38;7.20;99.90
5930;DHT22;2990;48.746;9.236;2022-11-12T18:20:04;7.20;99.90
5930;DHT22;2990;48.746;9.236;2022-11-12T18:22:30;7.20;99.90
5930;DHT22;2990;48.746;9.236;2022-11-12T18:24:56;7.10;99.90
5930;DHT22;2990;48.746;9.236;2022-11-12T18:27:21;7.20;99.90
5930;DHT22;2990;48.746;9.236;2022-11-12T18:29:47;7.00;99.90
5930;DHT22;2990;48.746;9.236;2022-11-12T18:32:13;6.90;99.90
5930;DHT22;2990;48.746;9.236;2022-11-12T18:34:38;6.80;99.90
5930;DHT22;2990;48.746;9.236;2022-11-12T18:37:12;6.90;99.90
5930;DHT22;2990;48.746;9.236;2022-11-12T18:39:38;6.80;99.90
5930;DHT22;2990;48.746;9.236;2022-11-12T18:42:08;6.80;99.90
5930;DHT22;2990;48.746;9.236;2022-11-12T18:44:34;6.90;99.90
5930;DHT22;2990;48.746;9.236;2022-11-12T18:47:03;6.80;99.90
5930;DHT22;2990;48.746;9.236;2022-11-12T18:49:28;6.80;99.90
5930;DHT22;2990;48.746;9.236;2022-11-12T18:51:54;6.80;99.90